Time;durP1;ratioP1;P1;durP2;ratioP2;P2;SDS_P1;SDS_P2;PMS_P1;PMS_P2;Temp;Humidity;BMP_temperature;BMP_pressure;BME280_temperature;BME280_humidity;BME280_pressure;Samples;Min_cycle;Max_cycle;Signal;HPM_P1;HPM_P2
2023/05/07 00:01:16;;;;;;;;;;;13.80;99.90;;;;;;5179179;27;19911;-37
2023/05/07 00:03:41;;;;;;;;;;;13.70;99.90;;;;;;5178232;27;20353;-37
2023/05/07 00:06:07;;;;;;;;;;;13.80;99.90;;;;;;5179192;27;19959;-36
2023/05/07 00:08:32;;;;;;;;;;;13.70;99.90;;;;;;5179079;27;19914;-37
2023/05/07 00:10:58;;;;;;;;;;;13.70;99.90;;;;;;5178178;27;19929;-37
2023/05/07 00:13:23;;;;;;;;;;;13.70;99.90;;;;;;5178848;27;20318;-37
2023/05/07 00:15:49;;;;;;;;;;;13.60;99.90;;;;;;5178657;27;19934;-37
2023/05/07 00:18:14;;;;;;;;;;;13.60;99.90;;;;;;5177975;27;19907;-37
2023/05/07 00:20:39;;;;;;;;;;;13.60;99.90;;;;;;5178807;27;19911;-37
2023/05/07 00:23:05;;;;;;;;;;;13.60;99.90;;;;;;5178793;27;19906;-37
2023/05/07 00:25:30;;;;;;;;;;;13.60;99.90;;;;;;5177678;27;19911;-37
2023/05/07 00:27:57;;;;;;;;;;;13.60;99.90;;;;;;5178676;27;20279;-37
2023/05/07 00:30:22;;;;;;;;;;;13.50;99.90;;;;;;5178816;27;19907;-36
2023/05/07 00:32:48;;;;;;;;;;;13.60;99.90;;;;;;5177006;27;20359;-37
2023/05/07 00:35:14;;;;;;;;;;;13.50;99.90;;;;;;5178642;27;20349;-37
2023/05/07 00:37:40;;;;;;;;;;;13.50;99.90;;;;;;5178431;27;19907;-37
2023/05/07 00:40:07;;;;;;;;;;;13.50;99.90;;;;;;5177649;27;19907;-37
2023/05/07 00:42:33;;;;;;;;;;;13.40;99.90;;;;;;5178347;27;19946;-37
2023/05/07 00:44:58;;;;;;;;;;;13.40;99.90;;;;;;5178351;27;19949;-37
2023/05/07 00:47:25;;;;;;;;;;;13.40;99.90;;;;;;5177416;27;19911;-37
2023/05/07 00:49:50;;;;;;;;;;;13.40;99.90;;;;;;5177055;27;19907;-37
2023/05/07 00:52:17;;;;;;;;;;;13.40;99.90;;;;;;5178140;27;19918;-38
2023/05/07 00:54:42;;;;;;;;;;;13.30;99.90;;;;;;5177140;27;20269;-37
2023/05/07 00:57:08;;;;;;;;;;;13.40;99.90;;;;;;5178179;27;19918;-37
2023/05/07 00:59:34;;;;;;;;;;;13.30;99.90;;;;;;5178035;27;20365;-38
2023/05/07 01:02:00;;;;;;;;;;;13.30;99.90;;;;;;5177169;27;19913;-37
2023/05/07 01:04:26;;;;;;;;;;;13.20;99.90;;;;;;5178084;27;19913;-37
2023/05/07 01:06:52;;;;;;;;;;;13.30;99.90;;;;;;5177894;27;20002;-38
2023/05/07 01:09:19;;;;;;;;;;;13.20;99.90;;;;;;5177142;27;19907;-37
2023/05/07 01:11:45;;;;;;;;;;;13.20;99.90;;;;;;5177778;27;19918;-37
2023/05/07 01:14:11;;;;;;;;;;;13.20;99.90;;;;;;5176887;27;19913;-37
2023/05/07 01:16:36;;;;;;;;;;;13.10;99.90;;;;;;5177664;27;19997;-38
2023/05/07 01:19:02;;;;;;;;;;;13.10;99.90;;;;;;5177785;27;19907;-37
2023/05/07 01:21:32;;;;;;;;;;;13.10;99.90;;;;;;5176893;27;19907;-40
2023/05/07 01:23:58;;;;;;;;;;;13.10;99.90;;;;;;5177745;27;19907;-38
2023/05/07 01:26:23;;;;;;;;;;;13.00;99.90;;;;;;5177403;27;19959;-38
2023/05/07 01:28:49;;;;;;;;;;;13.00;99.90;;;;;;5176504;27;19946;-37
2023/05/07 01:31:16;;;;;;;;;;;13.00;99.90;;;;;;5177102;27;20362;-38
2023/05/07 01:33:42;;;;;;;;;;;13.00;99.90;;;;;;5177119;27;19919;-38
2023/05/07 01:36:08;;;;;;;;;;;12.90;99.90;;;;;;5176617;27;19906;-38
2023/05/07 01:38:35;;;;;;;;;;;12.90;99.90;;;;;;5177308;27;19914;-37
2023/05/07 01:41:01;;;;;;;;;;;12.90;99.90;;;;;;5176955;27;19907;-38
2023/05/07 01:43:28;;;;;;;;;;;12.90;99.90;;;;;;5175690;27;19922;-38
2023/05/07 01:45:53;;;;;;;;;;;12.80;99.90;;;;;;5177386;27;20444;-38
2023/05/07 01:48:19;;;;;;;;;;;12.80;99.90;;;;;;5177170;27;20080;-38
2023/05/07 01:50:45;;;;;;;;;;;12.80;99.90;;;;;;5176183;27;19907;-38
2023/05/07 01:53:10;;;;;;;;;;;12.70;99.90;;;;;;5177198;27;19910;-38
2023/05/07 01:55:36;;;;;;;;;;;12.70;99.90;;;;;;5176960;27;19914;-38
2023/05/07 01:58:02;;;;;;;;;;;12.70;99.90;;;;;;5176078;27;19907;-38
2023/05/07 02:00:28;;;;;;;;;;;12.60;99.90;;;;;;5176684;27;19907;-37
2023/05/07 02:02:54;;;;;;;;;;;12.60;99.90;;;;;;5176747;27;19959;-38
2023/05/07 02:05:19;;;;;;;;;;;12.60;99.90;;;;;;5175937;27;19911;-38
2023/05/07 02:07:45;;;;;;;;;;;12.60;99.90;;;;;;5176688;27;19907;-38
2023/05/07 02:10:10;;;;;;;;;;;12.50;99.90;;;;;;5176677;27;19907;-37
2023/05/07 02:12:36;;;;;;;;;;;12.50;99.90;;;;;;5175753;27;19933;-38
2023/05/07 02:15:01;;;;;;;;;;;12.50;99.90;;;;;;5176397;27;20014;-38
2023/05/07 02:17:27;;;;;;;;;;;12.50;99.90;;;;;;5175915;27;19911;-38
2023/05/07 02:19:52;;;;;;;;;;;12.50;99.90;;;;;;5176375;27;19911;-38
2023/05/07 02:22:18;;;;;;;;;;;12.40;99.90;;;;;;5176500;27;19906;-39
2023/05/07 02:24:44;;;;;;;;;;;12.40;99.90;;;;;;5175600;27;19913;-38
2023/05/07 02:27:10;;;;;;;;;;;12.40;99.90;;;;;;5175795;27;19911;-38
2023/05/07 02:29:35;;;;;;;;;;;12.40;99.90;;;;;;5176031;27;20005;-37
2023/05/07 02:32:00;;;;;;;;;;;12.40;99.90;;;;;;5175070;27;19914;-37
2023/05/07 02:34:26;;;;;;;;;;;12.40;99.90;;;;;;5176328;27;19963;-38
2023/05/07 02:36:51;;;;;;;;;;;12.40;99.90;;;;;;5176406;27;20394;-38
2023/05/07 02:39:17;;;;;;;;;;;12.30;99.90;;;;;;5175373;27;19915;-37
2023/05/07 02:41:42;;;;;;;;;;;12.40;99.90;;;;;;5176024;27;19907;-38
2023/05/07 02:44:08;;;;;;;;;;;12.30;99.90;;;;;;5175791;27;19947;-38
2023/05/07 02:46:34;;;;;;;;;;;12.30;99.90;;;;;;5174981;27;19979;-38
2023/05/07 02:49:00;;;;;;;;;;;12.40;99.90;;;;;;5175818;27;20361;-38
2023/05/07 02:51:25;;;;;;;;;;;12.40;99.90;;;;;;5175885;27;19917;-38
2023/05/07 02:53:51;;;;;;;;;;;12.40;99.90;;;;;;5175029;27;20474;-38
2023/05/07 02:56:16;;;;;;;;;;;12.40;99.90;;;;;;5157173;27;19911;-37
2023/05/07 02:58:42;;;;;;;;;;;12.40;99.90;;;;;;5175633;27;19911;-38
2023/05/07 03:01:08;;;;;;;;;;;12.40;99.90;;;;;;5175265;27;19951;-37
2023/05/07 03:03:33;;;;;;;;;;;12.40;99.90;;;;;;5175663;27;20354;-38
2023/05/07 03:05:59;;;;;;;;;;;12.30;99.90;;;;;;5175803;27;19907;-38
2023/05/07 03:08:25;;;;;;;;;;;12.30;99.90;;;;;;5174872;27;19907;-38
2023/05/07 03:10:50;;;;;;;;;;;12.30;99.90;;;;;;5175410;27;19910;-38
2023/05/07 03:13:16;;;;;;;;;;;12.30;99.90;;;;;;5174578;27;19953;-38
2023/05/07 03:15:41;;;;;;;;;;;12.20;99.90;;;;;;5174429;27;19915;-38
2023/05/07 03:18:07;;;;;;;;;;;12.20;99.90;;;;;;5175476;27;19948;-37
2023/05/07 03:20:32;;;;;;;;;;;12.20;99.90;;;;;;5175095;27;19907;-38
2023/05/07 03:22:58;;;;;;;;;;;12.20;99.90;;;;;;5175041;27;20010;-37
2023/05/07 03:25:23;;;;;;;;;;;12.20;99.90;;;;;;5175440;27;19950;-38
2023/05/07 03:27:49;;;;;;;;;;;12.10;99.90;;;;;;5174495;27;19907;-38
2023/05/07 03:30:14;;;;;;;;;;;12.20;99.90;;;;;;5175362;27;19907;-38
2023/05/07 03:32:40;;;;;;;;;;;12.20;99.90;;;;;;5174888;27;20289;-38
2023/05/07 03:35:06;;;;;;;;;;;12.20;99.90;;;;;;5174531;27;19906;-38
2023/05/07 03:37:31;;;;;;;;;;;12.20;99.90;;;;;;5175133;27;19911;-38
2023/05/07 03:39:57;;;;;;;;;;;12.20;99.90;;;;;;5175136;27;20051;-38
2023/05/07 03:42:22;;;;;;;;;;;12.10;99.90;;;;;;5174577;27;19914;-37
2023/05/07 03:44:47;;;;;;;;;;;12.10;99.90;;;;;;5174745;27;19918;-37
2023/05/07 03:47:13;;;;;;;;;;;12.10;99.90;;;;;;5174939;27;19914;-37
2023/05/07 03:49:39;;;;;;;;;;;12.10;99.90;;;;;;5174273;27;19907;-38
2023/05/07 03:52:05;;;;;;;;;;;12.10;99.90;;;;;;5175059;27;19949;-38
2023/05/07 03:54:30;;;;;;;;;;;12.10;99.90;;;;;;5175155;27;20349;-37
2023/05/07 03:56:55;;;;;;;;;;;12.00;99.90;;;;;;5174266;27;19907;-38
2023/05/07 03:59:21;;;;;;;;;;;12.10;99.90;;;;;;5175033;27;19907;-38
2023/05/07 04:01:48;;;;;;;;;;;12.00;99.90;;;;;;5175006;27;19964;-38
2023/05/07 04:04:13;;;;;;;;;;;12.00;99.90;;;;;;5174021;27;19994;-38
2023/05/07 04:06:39;;;;;;;;;;;12.00;99.90;;;;;;5174972;27;19970;-38
2023/05/07 04:09:05;;;;;;;;;;;12.00;99.90;;;;;;5175020;27;19946;-38
2023/05/07 04:11:30;;;;;;;;;;;12.00;99.90;;;;;;5174042;27;19961;-38
2023/05/07 04:13:55;;;;;;;;;;;12.00;99.90;;;;;;5174353;27;19911;-38
2023/05/07 04:16:21;;;;;;;;;;;12.00;99.90;;;;;;5174951;27;20319;-38
2023/05/07 04:18:46;;;;;;;;;;;12.00;99.90;;;;;;5174043;27;19918;-37
2023/05/07 04:21:19;;;;;;;;;;;12.00;99.90;;;;;;5174902;27;19985;-38
2023/05/07 04:23:45;;;;;;;;;;;12.00;99.90;;;;;;5175556;27;19914;-38
2023/05/07 04:26:11;;;;;;;;;;;12.00;99.90;;;;;;5177993;27;19907;-38
2023/05/07 04:28:36;;;;;;;;;;;12.00;99.90;;;;;;5178663;27;19915;-38
2023/05/07 04:31:02;;;;;;;;;;;11.90;99.90;;;;;;5177721;27;19907;-37
2023/05/07 04:33:27;;;;;;;;;;;12.00;99.90;;;;;;5173521;27;20373;-37
2023/05/07 04:35:53;;;;;;;;;;;12.00;99.90;;;;;;5166065;27;19959;-38
2023/05/07 04:38:18;;;;;;;;;;;12.00;99.90;;;;;;5156945;27;19908;-37
2023/05/07 04:40:44;;;;;;;;;;;12.00;99.90;;;;;;5157352;27;19993;-38
2023/05/07 04:43:10;;;;;;;;;;;12.00;99.90;;;;;;5157620;27;19915;-38
2023/05/07 04:45:36;;;;;;;;;;;12.00;99.90;;;;;;5175907;27;20452;-38
2023/05/07 04:48:01;;;;;;;;;;;12.00;99.90;;;;;;5178385;27;19914;-38
2023/05/07 04:50:26;;;;;;;;;;;12.00;99.90;;;;;;5178345;27;19911;-37
2023/05/07 04:52:52;;;;;;;;;;;12.00;99.90;;;;;;5177071;27;19919;-38
2023/05/07 04:55:17;;;;;;;;;;;12.00;99.90;;;;;;5178186;27;19959;-40
2023/05/07 04:57:43;;;;;;;;;;;12.00;99.90;;;;;;5178146;27;19911;-38
2023/05/07 05:00:09;;;;;;;;;;;12.10;99.90;;;;;;5177304;27;19914;-38
2023/05/07 05:02:35;;;;;;;;;;;12.00;99.90;;;;;;5178008;27;19907;-37
2023/05/07 05:05:02;;;;;;;;;;;12.10;99.90;;;;;;5178161;27;19959;-38
2023/05/07 05:07:28;;;;;;;;;;;12.10;99.90;;;;;;5177218;27;19911;-37
2023/05/07 05:09:53;;;;;;;;;;;12.00;99.90;;;;;;5177774;27;19907;-37
2023/05/07 05:12:19;;;;;;;;;;;12.10;99.90;;;;;;5177853;27;19922;-38
2023/05/07 05:14:44;;;;;;;;;;;12.10;99.90;;;;;;5176767;27;19995;-38
2023/05/07 05:17:10;;;;;;;;;;;12.10;99.90;;;;;;5177827;27;19959;-38
2023/05/07 05:19:35;;;;;;;;;;;12.20;99.90;;;;;;5177629;27;19906;-38
2023/05/07 05:22:01;;;;;;;;;;;12.20;99.90;;;;;;5176929;27;20205;-38
2023/05/07 05:24:26;;;;;;;;;;;12.20;99.90;;;;;;5177536;27;19907;-37
2023/05/07 05:26:55;;;;;;;;;;;12.20;99.90;;;;;;5177489;27;19914;-37
2023/05/07 05:29:20;;;;;;;;;;;12.20;99.90;;;;;;5176711;27;19907;-38
2023/05/07 05:31:46;;;;;;;;;;;12.20;99.90;;;;;;5177343;27;19915;-38
2023/05/07 05:34:11;;;;;;;;;;;12.20;99.90;;;;;;5176767;27;19919;-38
2023/05/07 05:36:37;;;;;;;;;;;12.20;99.90;;;;;;5176617;27;20057;-38
2023/05/07 05:39:02;;;;;;;;;;;12.10;99.90;;;;;;5177242;27;19920;-37
2023/05/07 05:41:28;;;;;;;;;;;12.10;99.90;;;;;;5176460;27;19943;-38
2023/05/07 05:43:53;;;;;;;;;;;12.20;99.90;;;;;;5176764;27;19962;-38
2023/05/07 05:46:18;;;;;;;;;;;12.20;99.90;;;;;;5163998;27;19919;-38
2023/05/07 05:48:44;;;;;;;;;;;12.20;99.90;;;;;;5159192;27;19933;-38
2023/05/07 05:51:09;;;;;;;;;;;12.30;99.90;;;;;;5156850;27;20373;-38
2023/05/07 05:53:35;;;;;;;;;;;12.30;99.90;;;;;;5159091;27;19906;-38
2023/05/07 05:56:00;;;;;;;;;;;12.40;99.90;;;;;;5176321;27;19906;-38
2023/05/07 05:58:26;;;;;;;;;;;12.40;99.90;;;;;;5167962;27;20289;-38
2023/05/07 06:00:53;;;;;;;;;;;12.40;99.90;;;;;;5155967;27;19914;-38
2023/05/07 06:03:18;;;;;;;;;;;12.40;99.90;;;;;;5157777;27;19907;-39
2023/05/07 06:05:44;;;;;;;;;;;12.50;99.90;;;;;;5176663;27;19907;-38
2023/05/07 06:08:09;;;;;;;;;;;12.50;99.90;;;;;;5176434;27;19913;-38
2023/05/07 06:10:36;;;;;;;;;;;12.50;99.90;;;;;;5174427;27;19942;-39
2023/05/07 06:13:01;;;;;;;;;;;12.60;99.90;;;;;;5175630;27;19962;-39
2023/05/07 06:15:27;;;;;;;;;;;12.60;99.90;;;;;;5175515;27;19946;-38
2023/05/07 06:17:52;;;;;;;;;;;12.60;99.90;;;;;;5174641;27;20380;-37
2023/05/07 06:20:17;;;;;;;;;;;12.70;99.90;;;;;;5176341;27;19952;-38
2023/05/07 06:22:43;;;;;;;;;;;12.70;99.90;;;;;;5176335;27;19959;-38
2023/05/07 06:25:09;;;;;;;;;;;12.70;99.90;;;;;;5175498;27;20357;-37
2023/05/07 06:27:34;;;;;;;;;;;12.80;99.90;;;;;;5172964;27;19907;-39
2023/05/07 06:30:00;;;;;;;;;;;12.80;99.90;;;;;;5176294;27;19907;-38
2023/05/07 06:32:25;;;;;;;;;;;12.80;99.90;;;;;;5175025;27;19942;-38
2023/05/07 06:34:51;;;;;;;;;;;12.90;99.90;;;;;;5176136;27;19958;-37
2023/05/07 06:37:16;;;;;;;;;;;12.90;99.90;;;;;;5174909;27;19911;-39
2023/05/07 06:39:41;;;;;;;;;;;12.90;99.90;;;;;;5175049;27;19907;-38
2023/05/07 06:42:07;;;;;;;;;;;12.90;99.90;;;;;;5176139;27;19907;-38
2023/05/07 06:44:32;;;;;;;;;;;12.90;99.90;;;;;;5175113;27;20310;-40
2023/05/07 06:46:58;;;;;;;;;;;12.90;99.90;;;;;;5175325;27;19913;-38
2023/05/07 06:49:23;;;;;;;;;;;12.90;99.90;;;;;;5175361;27;19906;-38
2023/05/07 06:51:49;;;;;;;;;;;12.90;99.90;;;;;;5168113;27;19919;-38
2023/05/07 06:54:15;;;;;;;;;;;12.80;99.90;;;;;;5154793;27;19907;-38
2023/05/07 06:56:40;;;;;;;;;;;12.80;99.90;;;;;;5149022;27;19908;-39
2023/05/07 06:59:06;;;;;;;;;;;12.80;99.90;;;;;;5153719;27;19915;-38
2023/05/07 07:01:32;;;;;;;;;;;12.70;99.90;;;;;;5151245;27;19918;-38
2023/05/07 07:03:57;;;;;;;;;;;12.70;99.90;;;;;;5151370;27;19919;-38
2023/05/07 07:06:22;;;;;;;;;;;12.70;99.90;;;;;;5160111;27;19954;-38
2023/05/07 07:08:48;;;;;;;;;;;12.60;99.90;;;;;;5174261;27;19911;-38
2023/05/07 07:11:13;;;;;;;;;;;12.70;99.90;;;;;;5174593;27;20401;-37
2023/05/07 07:13:40;;;;;;;;;;;12.70;99.90;;;;;;5174083;27;20022;-38
2023/05/07 07:16:05;;;;;;;;;;;12.70;99.90;;;;;;5170586;27;20377;-38
2023/05/07 07:18:31;;;;;;;;;;;12.80;99.90;;;;;;5170046;27;19932;-38
2023/05/07 07:20:56;;;;;;;;;;;12.80;99.90;;;;;;5167220;27;19937;-38
2023/05/07 07:23:22;;;;;;;;;;;12.90;99.90;;;;;;5166787;27;19911;-38
2023/05/07 07:25:47;;;;;;;;;;;12.90;99.90;;;;;;5174436;27;20262;-37
2023/05/07 07:28:13;;;;;;;;;;;13.00;99.90;;;;;;5170289;27;20354;-38
2023/05/07 07:30:38;;;;;;;;;;;13.10;99.90;;;;;;5166809;27;19955;-38
2023/05/07 07:33:05;;;;;;;;;;;13.10;99.90;;;;;;5174016;27;20366;-38
2023/05/07 07:35:30;;;;;;;;;;;13.20;99.90;;;;;;5173269;27;19911;-38
2023/05/07 07:37:56;;;;;;;;;;;13.20;99.90;;;;;;5172968;27;19915;-38
2023/05/07 07:40:22;;;;;;;;;;;13.30;99.90;;;;;;5165905;27;19911;-38
2023/05/07 07:42:47;;;;;;;;;;;13.30;99.90;;;;;;5153329;27;19918;-38
2023/05/07 07:45:13;;;;;;;;;;;13.40;99.90;;;;;;5154050;27;19919;-38
2023/05/07 07:47:39;;;;;;;;;;;13.40;99.90;;;;;;5154036;27;19946;-38
2023/05/07 07:50:05;;;;;;;;;;;13.50;99.90;;;;;;5168930;27;20005;-38
2023/05/07 07:52:31;;;;;;;;;;;13.40;99.90;;;;;;5153980;27;20055;-38
2023/05/07 07:54:56;;;;;;;;;;;13.50;99.90;;;;;;5167381;27;20343;-38
2023/05/07 07:57:21;;;;;;;;;;;13.60;99.90;;;;;;5172424;27;19910;-38
2023/05/07 07:59:47;;;;;;;;;;;13.60;99.90;;;;;;5175638;27;19915;-38
2023/05/07 08:02:12;;;;;;;;;;;13.80;99.90;;;;;;5176916;27;20270;-40
2023/05/07 08:04:38;;;;;;;;;;;13.80;99.90;;;;;;5176094;27;19906;-38
2023/05/07 08:07:03;;;;;;;;;;;13.90;99.90;;;;;;5170510;27;19907;-38
2023/05/07 08:09:29;;;;;;;;;;;14.00;99.90;;;;;;5166079;27;19911;-38
2023/05/07 08:11:54;;;;;;;;;;;14.00;99.90;;;;;;5168256;27;19923;-38
2023/05/07 08:14:20;;;;;;;;;;;14.10;99.90;;;;;;5158152;27;20265;-38
2023/05/07 08:16:45;;;;;;;;;;;14.10;99.90;;;;;;5168796;27;19963;-40
2023/05/07 08:19:11;;;;;;;;;;;14.20;99.90;;;;;;5176498;27;20515;-38
2023/05/07 08:21:38;;;;;;;;;;;14.30;99.90;;;;;;5178082;27;20280;-38
2023/05/07 08:24:04;;;;;;;;;;;14.30;99.90;;;;;;5172226;27;19965;-38
2023/05/07 08:26:30;;;;;;;;;;;14.40;99.90;;;;;;5177438;27;19953;-38
2023/05/07 08:28:55;;;;;;;;;;;14.40;99.90;;;;;;5177789;27;20348;-38
2023/05/07 08:31:21;;;;;;;;;;;14.50;99.90;;;;;;5176527;27;19922;-38
2023/05/07 08:33:46;;;;;;;;;;;14.60;99.90;;;;;;5177477;27;19919;-38
2023/05/07 08:36:12;;;;;;;;;;;14.70;99.90;;;;;;5173343;27;20381;-38
2023/05/07 08:38:37;;;;;;;;;;;14.70;99.90;;;;;;5174467;27;19915;-38
2023/05/07 08:41:03;;;;;;;;;;;14.80;99.90;;;;;;5168848;27;19914;-38
2023/05/07 08:43:31;;;;;;;;;;;14.80;99.90;;;;;;5176441;27;19910;-38
2023/05/07 08:46:00;;;;;;;;;;;14.80;99.90;;;;;;5176411;27;19918;-38
2023/05/07 08:48:27;;;;;;;;;;;14.80;99.90;;;;;;5177687;27;20422;-38
2023/05/07 08:50:52;;;;;;;;;;;14.80;99.90;;;;;;5167972;27;19950;-38
2023/05/07 08:53:20;;;;;;;;;;;14.80;99.90;;;;;;5176485;27;20018;-38
2023/05/07 08:55:45;;;;;;;;;;;14.80;99.90;;;;;;5157876;27;19907;-38
2023/05/07 08:58:11;;;;;;;;;;;14.90;99.90;;;;;;5157669;27;19933;-38
2023/05/07 09:00:37;;;;;;;;;;;15.00;99.90;;;;;;5157251;27;19911;-38
2023/05/07 09:03:03;;;;;;;;;;;15.10;99.90;;;;;;5157425;27;19930;-38
2023/05/07 09:05:28;;;;;;;;;;;15.30;99.90;;;;;;5156665;27;20452;-38
2023/05/07 09:07:55;;;;;;;;;;;15.30;99.90;;;;;;5161389;27;19914;-38
2023/05/07 09:10:21;;;;;;;;;;;15.40;99.90;;;;;;5177748;27;20410;-38
2023/05/07 09:12:46;;;;;;;;;;;15.40;99.90;;;;;;5177945;27;19915;-38
2023/05/07 09:15:12;;;;;;;;;;;15.40;99.90;;;;;;5168910;27;19915;-38
2023/05/07 09:17:38;;;;;;;;;;;15.50;99.90;;;;;;5170382;27;19911;-38
2023/05/07 09:20:04;;;;;;;;;;;15.50;99.90;;;;;;5158739;27;19919;-38
2023/05/07 09:22:33;;;;;;;;;;;15.60;99.90;;;;;;5164531;27;21846;-38
2023/05/07 09:24:58;;;;;;;;;;;15.60;99.90;;;;;;5165971;27;20051;-37
2023/05/07 09:27:24;;;;;;;;;;;15.60;99.90;;;;;;5166056;27;19994;-36
2023/05/07 09:29:50;;;;;;;;;;;15.60;99.90;;;;;;5177479;27;20341;-38
2023/05/07 09:32:16;;;;;;;;;;;15.60;99.90;;;;;;5177733;27;19925;-38
2023/05/07 09:34:41;;;;;;;;;;;15.70;99.90;;;;;;5177673;27;20330;-38
2023/05/07 09:37:07;;;;;;;;;;;15.70;99.90;;;;;;5177975;27;19907;-37
2023/05/07 09:39:43;;;;;;;;;;;15.90;99.90;;;;;;5177922;27;19946;-38
2023/05/07 09:42:08;;;;;;;;;;;16.10;99.90;;;;;;5177610;27;19910;-38
2023/05/07 09:44:34;;;;;;;;;;;16.20;99.90;;;;;;5177690;27;19910;-37
2023/05/07 09:47:00;;;;;;;;;;;16.30;99.90;;;;;;5177822;27;19907;-37
2023/05/07 09:49:29;;;;;;;;;;;16.40;99.90;;;;;;5177415;27;19914;-36
2023/05/07 09:51:55;;;;;;;;;;;16.40;99.90;;;;;;5177159;27;20203;-37
2023/05/07 09:54:21;;;;;;;;;;;16.40;99.90;;;;;;5177136;27;19961;-37
2023/05/07 09:56:48;;;;;;;;;;;16.40;99.90;;;;;;5176089;27;19915;-36
2023/05/07 09:59:14;;;;;;;;;;;16.40;99.90;;;;;;5176900;27;19951;-37
2023/05/07 10:01:40;;;;;;;;;;;16.50;99.90;;;;;;5175973;27;19911;-37
2023/05/07 10:04:08;;;;;;;;;;;16.50;99.90;;;;;;5176922;27;19955;-37
2023/05/07 10:06:34;;;;;;;;;;;16.60;99.90;;;;;;5176844;27;19920;-37
2023/05/07 10:09:00;;;;;;;;;;;16.70;99.90;;;;;;5176462;27;19915;-38
2023/05/07 10:11:25;;;;;;;;;;;16.70;99.90;;;;;;5170158;27;19911;-37
2023/05/07 10:13:52;;;;;;;;;;;16.80;99.90;;;;;;5175108;27;19972;-38
2023/05/07 10:16:17;;;;;;;;;;;16.90;99.90;;;;;;5176173;27;19910;-38
2023/05/07 10:18:43;;;;;;;;;;;17.00;99.90;;;;;;5177024;27;19907;-38
2023/05/07 10:21:16;;;;;;;;;;;17.10;99.90;;;;;;5168650;27;19953;-38
2023/05/07 10:23:44;;;;;;;;;;;17.20;99.90;;;;;;5168516;27;19940;-37
2023/05/07 10:26:10;;;;;;;;;;;17.30;99.90;;;;;;5159753;27;19908;-38
2023/05/07 10:28:39;;;;;;;;;;;17.50;99.90;;;;;;5155965;27;19908;-37
2023/05/07 10:31:11;;;;;;;;;;;17.70;99.90;;;;;;5155807;27;19907;-38
2023/05/07 10:33:37;;;;;;;;;;;17.80;99.90;;;;;;5162665;27;19919;-38
2023/05/07 10:36:04;;;;;;;;;;;17.80;99.90;;;;;;5176830;27;19914;-37
2023/05/07 10:38:30;;;;;;;;;;;17.70;99.90;;;;;;5176382;27;19907;-37
2023/05/07 10:40:55;;;;;;;;;;;17.70;99.90;;;;;;5174214;27;19907;-38
2023/05/07 10:43:21;;;;;;;;;;;17.80;99.90;;;;;;5155589;27;19953;-38
2023/05/07 10:46:10;;;;;;;;;;;17.90;99.90;;;;;;5155013;27;19921;-38
2023/05/07 10:48:56;;;;;;;;;;;18.00;99.90;;;;;;5150685;27;19911;-38
2023/05/07 10:51:21;;;;;;;;;;;18.20;99.90;;;;;;5166038;27;19911;-39
2023/05/07 10:53:47;;;;;;;;;;;18.50;99.90;;;;;;5174697;27;19910;-38
2023/05/07 10:56:18;;;;;;;;;;;18.60;99.90;;;;;;5174318;27;20289;-40
2023/05/07 10:58:44;;;;;;;;;;;18.70;99.90;;;;;;5173066;27;19959;-37
2023/05/07 11:01:12;;;;;;;;;;;18.70;99.90;;;;;;5170228;27;19915;-37
2023/05/07 11:03:57;;;;;;;;;;;18.80;99.90;;;;;;5173442;27;19971;-39
2023/05/07 11:06:23;;;;;;;;;;;18.90;99.90;;;;;;5168592;27;19910;-38
2023/05/07 11:08:54;;;;;;;;;;;19.20;99.90;;;;;;5172694;27;19935;-37
2023/05/07 11:11:40;;;;;;;;;;;19.40;99.90;;;;;;5175224;27;20274;-37
2023/05/07 11:14:05;;;;;;;;;;;19.50;99.90;;;;;;5174630;27;19907;-38
2023/05/07 11:16:33;;;;;;;;;;;19.50;99.90;;;;;;5175237;27;19907;-37
2023/05/07 11:18:58;;;;;;;;;;;19.60;99.90;;;;;;5165691;27;19921;-37
2023/05/07 11:21:34;;;;;;;;;;;19.50;99.90;;;;;;5169345;27;20005;-37
2023/05/07 11:24:00;;;;;;;;;;;19.60;99.90;;;;;;5154458;27;19907;-37
2023/05/07 11:26:26;;;;;;;;;;;19.50;99.90;;;;;;5153700;27;19989;-36
2023/05/07 11:28:52;;;;;;;;;;;19.50;99.90;;;;;;5168397;27;20256;-38
2023/05/07 11:31:20;;;;;;;;;;;19.60;99.90;;;;;;5175303;27;20018;-37
2023/05/07 11:33:46;;;;;;;;;;;19.60;99.90;;;;;;5173004;27;20011;-38
2023/05/07 11:36:12;;;;;;;;;;;19.80;99.90;;;;;;5174995;27;19907;-37
2023/05/07 11:38:38;;;;;;;;;;;19.90;99.90;;;;;;5174637;27;19999;-38
2023/05/07 11:41:06;;;;;;;;;;;20.10;99.90;;;;;;5174140;27;19907;-37
2023/05/07 11:43:32;;;;;;;;;;;20.30;99.90;;;;;;5174418;27;19911;-38
2023/05/07 11:46:11;;;;;;;;;;;20.50;99.90;;;;;;5174505;27;19919;-38
2023/05/07 11:48:37;;;;;;;;;;;20.50;99.90;;;;;;5174619;27;19907;-37
2023/05/07 11:51:04;;;;;;;;;;;20.60;99.90;;;;;;5175071;27;19906;-37
2023/05/07 11:53:36;;;;;;;;;;;20.60;99.90;;;;;;5169310;27;20333;-38
2023/05/07 11:56:16;;;;;;;;;;;20.70;99.90;;;;;;5173653;27;20361;-37
2023/05/07 11:58:42;;;;;;;;;;;20.80;99.90;;;;;;5175403;27;19914;-37
2023/05/07 12:01:09;;;;;;;;;;;21.10;99.90;;;;;;5174996;27;19954;-38
2023/05/07 12:03:36;;;;;;;;;;;21.20;99.90;;;;;;5175489;27;19998;-38
2023/05/07 12:06:01;;;;;;;;;;;21.30;99.90;;;;;;5175916;27;19914;-37
2023/05/07 12:08:27;;;;;;;;;;;21.40;99.90;;;;;;5174998;27;19906;-38
2023/05/07 12:10:53;;;;;;;;;;;21.40;99.90;;;;;;5175331;27;19948;-38
2023/05/07 12:13:23;;;;;;;;;;;21.40;99.90;;;;;;5175709;27;19918;-38
2023/05/07 12:15:55;;;;;;;;;;;21.30;99.90;;;;;;5159661;27;19997;-38
2023/05/07 12:18:21;;;;;;;;;;;21.10;99.90;;;;;;5166391;27;19911;-38
2023/05/07 12:20:47;;;;;;;;;;;21.00;99.90;;;;;;5166346;27;19911;-38
2023/05/07 12:23:13;;;;;;;;;;;21.10;99.90;;;;;;5174900;27;19951;-37
2023/05/07 12:25:39;;;;;;;;;;;21.10;99.90;;;;;;5173251;27;19918;-38
2023/05/07 12:28:05;;;;;;;;;;;21.20;99.90;;;;;;5167052;27;19911;-38
2023/05/07 12:30:32;;;;;;;;;;;21.30;99.90;;;;;;5153905;27;19907;-38
2023/05/07 12:32:57;;;;;;;;;;;21.20;99.90;;;;;;5153904;27;19926;-38
2023/05/07 12:35:30;;;;;;;;;;;21.20;99.90;;;;;;5154447;27;19907;-38
2023/05/07 12:37:56;;;;;;;;;;;21.10;99.90;;;;;;5154163;27;19957;-39
2023/05/07 12:40:21;;;;;;;;;;;21.40;99.90;;;;;;5174275;27;19914;-38
2023/05/07 12:42:52;;;;;;;;;;;21.50;99.90;;;;;;5175235;27;19906;-38
2023/05/07 12:45:18;;;;;;;;;;;21.60;99.90;;;;;;5174937;27;19906;-38
2023/05/07 12:47:46;;;;;;;;;;;21.70;99.90;;;;;;5178887;27;19992;-38
2023/05/07 12:50:15;;;;;;;;;;;21.60;99.90;;;;;;5179035;27;19965;-38
2023/05/07 12:52:42;;;;;;;;;;;21.70;99.90;;;;;;5178674;27;19915;-37
2023/05/07 12:55:08;;;;;;;;;;;21.70;99.90;;;;;;5178848;27;19907;-37
2023/05/07 12:57:41;;;;;;;;;;;21.50;99.90;;;;;;5178335;27;20310;-37
2023/05/07 13:00:07;;;;;;;;;;;21.40;99.90;;;;;;5178735;27;19907;-37
2023/05/07 13:02:34;;;;;;;;;;;21.20;99.90;;;;;;5178701;27;20010;-38
2023/05/07 13:04:59;;;;;;;;;;;21.20;99.90;;;;;;5178412;27;19993;-38
2023/05/07 13:07:25;;;;;;;;;;;21.40;99.90;;;;;;5178758;27;19987;-37
2023/05/07 13:09:50;;;;;;;;;;;21.80;99.90;;;;;;5177842;27;20010;-38
2023/05/07 13:12:16;;;;;;;;;;;22.00;99.90;;;;;;5172850;27;19919;-38
2023/05/07 13:14:41;;;;;;;;;;;22.10;99.90;;;;;;5172031;27;19918;-37
2023/05/07 13:17:07;;;;;;;;;;;21.90;99.90;;;;;;5178148;27;20315;-38
2023/05/07 13:19:32;;;;;;;;;;;21.90;99.90;;;;;;5177922;27;19911;-38
2023/05/07 13:21:58;;;;;;;;;;;22.10;99.90;;;;;;5178247;27;20245;-38
2023/05/07 13:24:23;;;;;;;;;;;22.20;99.90;;;;;;5177130;27;20010;-37
2023/05/07 13:26:50;;;;;;;;;;;22.20;99.90;;;;;;5177286;27;19907;-38
2023/05/07 13:29:15;;;;;;;;;;;22.10;99.90;;;;;;5178304;27;20279;-38
2023/05/07 13:31:43;;;;;;;;;;;22.00;99.90;;;;;;5178082;27;19911;-38
2023/05/07 13:34:09;;;;;;;;;;;22.30;99.90;;;;;;5177234;27;19923;-38
2023/05/07 13:36:37;;;;;;;;;;;22.80;99.90;;;;;;5178036;27;19993;-38
2023/05/07 13:39:03;;;;;;;;;;;23.20;99.90;;;;;;5162250;27;19907;-38
2023/05/07 13:41:28;;;;;;;;;;;23.50;99.90;;;;;;5168564;27;19910;-38
2023/05/07 13:43:54;;;;;;;;;;;23.70;99.90;;;;;;5157199;27;20334;-38
2023/05/07 13:46:20;;;;;;;;;;;23.80;99.90;;;;;;5164582;27;20274;-38
2023/05/07 13:48:45;;;;;;;;;;;23.80;99.90;;;;;;5168842;27;19912;-38
2023/05/07 13:51:11;;;;;;;;;;;23.90;99.90;;;;;;5163364;27;19912;-38
2023/05/07 13:53:36;;;;;;;;;;;24.20;99.90;;;;;;5159294;27;19931;-39
2023/05/07 13:56:04;;;;;;;;;;;24.50;99.90;;;;;;5160591;27;20241;-38
2023/05/07 13:58:30;;;;;;;;;;;24.70;99.90;;;;;;5172606;27;19911;-39
2023/05/07 14:00:55;;;;;;;;;;;25.00;99.90;;;;;;5175706;27;19921;-38
2023/05/07 14:03:21;;;;;;;;;;;25.10;99.90;;;;;;5177378;27;20349;-38
2023/05/07 14:05:47;;;;;;;;;;;25.00;99.90;;;;;;5177374;27;19907;-38
2023/05/07 14:08:13;;;;;;;;;;;24.90;99.90;;;;;;5176852;27;19907;-38
2023/05/07 14:10:39;;;;;;;;;;;25.00;99.90;;;;;;5177332;27;19914;-38